Time;durP1;ratioP1;P1;durP2;ratioP2;P2;SDS_P1;SDS_P2;PMS_P1;PMS_P2;Temp;Humidity;BMP_temperature;BMP_pressure;BME280_temperature;BME280_humidity;BME280_pressure;Samples;Min_cycle;Max_cycle;Signal;HPM_P1;HPM_P2
2023/04/30 00:00:44;;;;;;;;;;;15.20;91.40;;;15.42;55.00;98988.66;4910573;28;113662;-86
2023/04/30 00:03:13;;;;;;;;;;;15.20;91.40;;;15.44;55.19;98978.81;4913209;28;124050;-86
2023/04/30 00:05:39;;;;;;;;;;;15.10;91.40;;;15.44;55.06;98989.97;4910292;28;123822;-80
2023/04/30 00:08:08;;;;;;;;;;;15.20;91.40;;;15.50;55.21;98995.31;4908730;28;115596;-84
2023/04/30 00:10:37;;;;;;;;;;;15.10;91.40;;;15.51;55.03;98985.84;4898301;28;114706;-84
2023/04/30 00:13:03;;;;;;;;;;;15.20;91.40;;;15.53;54.72;98983.50;4911685;28;124585;-80
2023/04/30 00:15:30;;;;;;;;;;;15.20;91.40;;;15.55;54.89;98987.56;4909322;28;124439;-80
2023/04/30 00:18:05;;;;;;;;;;;15.20;91.40;;;15.55;54.96;98984.78;4911151;28;113703;-82
2023/04/30 00:20:40;;;;;;;;;;;15.20;91.40;;;15.57;54.88;98987.25;4914640;28;113273;-87
2023/04/30 00:23:07;;;;;;;;;;;15.30;91.40;;;15.54;54.86;98976.78;4911350;28;124152;-82
2023/04/30 00:25:41;;;;;;;;;;;15.20;91.30;;;15.53;54.59;98973.19;4911090;28;124439;-86
2023/04/30 00:28:16;;;;;;;;;;;15.20;91.30;;;15.50;54.61;98985.03;4898285;28;113700;-84
2023/04/30 00:30:44;;;;;;;;;;;15.20;91.20;;;15.45;54.75;98983.25;4911569;28;113604;-82
2023/04/30 00:33:13;;;;;;;;;;;15.20;91.20;;;15.43;54.78;98991.13;4911326;28;123382;-85
2023/04/30 00:35:40;;;;;;;;;;;15.20;91.20;;;15.41;54.78;98981.47;4912800;28;123965;-79
2023/04/30 00:38:09;;;;;;;;;;;15.20;91.20;;;15.40;54.80;98985.44;4911667;28;114405;-84
2023/04/30 00:40:40;;;;;;;;;;;15.20;91.20;;;15.40;54.83;98994.59;4911819;28;113788;-82
2023/04/30 00:43:06;;;;;;;;;;;15.10;91.20;;;15.40;54.86;98991.81;4896976;28;123220;-86
2023/04/30 00:45:39;;;;;;;;;;;15.10;91.20;;;15.41;55.09;98987.84;4913591;28;124245;-84
2023/04/30 00:48:08;;;;;;;;;;;15.20;91.30;;;15.42;54.95;98995.06;4913804;28;114257;-82
2023/04/30 00:50:44;;;;;;;;;;;15.20;91.40;;;15.43;55.03;99002.25;4913149;28;113250;-85
2023/04/30 00:53:13;;;;;;;;;;;15.20;91.30;;;15.41;54.77;98993.44;4911681;28;125034;-82
2023/04/30 00:55:42;;;;;;;;;;;15.10;91.30;;;15.36;54.85;98992.81;4908986;28;124017;-79
2023/04/30 00:58:09;;;;;;;;;;;15.10;91.30;;;15.34;54.96;98995.13;4907244;28;115444;-84
2023/04/30 01:00:42;;;;;;;;;;;15.10;91.30;;;15.35;54.57;98994.78;4900118;28;114406;-86
2023/04/30 01:03:09;;;;;;;;;;;15.10;91.30;;;15.38;54.77;98996.09;4908539;28;124362;-79
2023/04/30 01:05:38;;;;;;;;;;;15.10;91.30;;;15.38;54.77;98996.91;4908147;28;124507;-82
2023/04/30 01:08:07;;;;;;;;;;;15.10;91.30;;;15.35;54.87;98994.78;4914459;28;113977;-82
2023/04/30 01:10:51;;;;;;;;;;;15.10;91.30;;;15.37;54.81;98994.47;4910553;28;113237;-85
2023/04/30 01:13:30;;;;;;;;;;;15.10;91.30;;;15.38;54.81;98999.69;4906791;28;123382;-82
2023/04/30 01:16:13;;;;;;;;;;;15.10;91.30;;;15.36;54.70;98996.41;4913596;28;122910;-84
2023/04/30 01:18:59;;;;;;;;;;;15.10;91.30;;;15.33;54.74;98993.50;4909003;28;114580;-79
2023/04/30 01:21:28;;;;;;;;;;;15.10;91.20;;;15.28;54.68;98988.94;4913118;28;113232;-80
2023/04/30 01:24:25;;;;;;;;;;;15.00;91.10;;;15.27;54.83;98992.09;4911117;28;124554;-84
2023/04/30 01:27:45;;;;;;;;;;;15.00;91.10;;;15.18;54.59;98983.81;4910279;28;124261;-77
2023/04/30 01:30:13;;;;;;;;;;;15.00;91.10;;;15.11;54.74;98980.72;4871971;28;114678;-77
2023/04/30 01:32:45;;;;;;;;;;;14.90;91.10;;;15.11;54.89;98983.50;4842212;28;112944;-79
2023/04/30 01:35:13;;;;;;;;;;;14.90;91.10;;;15.09;54.76;98974.69;4871435;28;124179;-86
2023/04/30 01:37:58;;;;;;;;;;;14.90;91.10;;;15.09;54.87;98980.25;4869164;28;124601;-83
2023/04/30 01:40:44;;;;;;;;;;;14.90;91.10;;;15.08;54.64;98976.66;4869036;28;114609;-78
2023/04/30 01:43:25;;;;;;;;;;;14.80;91.10;;;15.07;54.75;98971.41;4866119;28;113782;-79
2023/04/30 01:46:23;;;;;;;;;;;14.80;91.10;;;15.05;54.82;98979.31;4867123;28;124169;-76
2023/04/30 01:49:21;;;;;;;;;;;14.80;91.10;;;15.05;54.75;98974.56;4859459;28;123709;-79
2023/04/30 01:51:50;;;;;;;;;;;14.80;91.10;;;15.06;55.01;98976.19;4869817;28;114591;-79
2023/04/30 01:54:30;;;;;;;;;;;14.80;91.20;;;15.00;54.56;98978.34;4867068;28;114386;-77
2023/04/30 01:57:07;;;;;;;;;;;14.80;91.10;;;14.97;54.80;98979.03;4851033;28;124150;-82
2023/04/30 01:59:35;;;;;;;;;;;14.70;91.10;;;14.89;55.02;98974.31;4851118;28;123111;-83
2023/04/30 02:02:02;;;;;;;;;;;14.70;91.10;;;14.89;55.04;98985.47;4902291;28;115142;-79
2023/04/30 02:04:33;;;;;;;;;;;14.70;91.20;;;14.88;55.14;98981.03;4906212;28;113486;-77
2023/04/30 02:06:59;;;;;;;;;;;14.60;91.20;;;14.85;54.97;98978.91;4909367;28;124324;-78
2023/04/30 02:09:26;;;;;;;;;;;14.60;91.20;;;14.84;55.29;98985.66;4901604;28;123082;-76
2023/04/30 02:11:56;;;;;;;;;;;14.60;91.20;;;14.86;55.03;98969.44;4905653;28;114151;-81
2023/04/30 02:14:22;;;;;;;;;;;14.60;91.20;;;14.83;55.26;98972.06;4900366;28;113822;-77
2023/04/30 02:16:49;;;;;;;;;;;14.60;91.20;;;14.76;55.15;98967.84;4908864;28;124242;-78
2023/04/30 02:19:18;;;;;;;;;;;14.60;91.20;;;14.68;55.29;98979.03;4901076;28;123685;-79
2023/04/30 02:21:45;;;;;;;;;;;14.50;91.20;;;14.66;55.52;98973.78;4904516;28;114629;-77
2023/04/30 02:24:12;;;;;;;;;;;14.50;91.20;;;14.67;55.49;98977.38;4910204;28;113533;-80
2023/04/30 02:26:49;;;;;;;;;;;14.50;91.30;;;14.64;55.34;98980.84;4909379;28;124829;-80
2023/04/30 02:29:16;;;;;;;;;;;14.30;91.30;;;14.60;55.54;98969.59;4910017;28;123822;-77
2023/04/30 02:31:48;;;;;;;;;;;14.40;91.70;;;14.62;55.63;98978.41;4911887;28;114100;-78
2023/04/30 02:34:14;;;;;;;;;;;14.40;91.40;;;14.64;55.52;98980.84;4909426;28;114202;-78
2023/04/30 02:36:43;;;;;;;;;;;14.40;91.40;;;14.67;55.28;98975.44;4911061;28;124855;-81
2023/04/30 02:39:09;;;;;;;;;;;14.40;91.40;;;14.65;55.36;98974.97;4909527;28;124387;-78
2023/04/30 02:41:36;;;;;;;;;;;14.40;91.50;;;14.63;55.72;98976.44;4908671;28;115622;-80
2023/04/30 02:44:02;;;;;;;;;;;14.30;91.40;;;14.65;55.49;98979.72;4908903;28;114614;-78
2023/04/30 02:46:31;;;;;;;;;;;14.40;91.80;;;14.67;55.54;98981.00;4912449;28;123577;-79
2023/04/30 02:48:57;;;;;;;;;;;14.40;91.50;;;14.67;55.58;98977.38;4912265;28;124486;-82
2023/04/30 02:51:24;;;;;;;;;;;14.40;91.40;;;14.69;55.61;98966.75;4912466;28;114498;-78
2023/04/30 02:53:50;;;;;;;;;;;14.40;91.40;;;14.69;55.49;98973.13;4898654;28;112881;-79
2023/04/30 02:56:20;;;;;;;;;;;14.40;91.40;;;14.68;55.30;98967.91;4912176;28;124388;-78
2023/04/30 02:58:46;;;;;;;;;;;14.40;91.50;;;14.60;55.47;98974.34;4911966;28;124346;-78
2023/04/30 03:01:12;;;;;;;;;;;13.30;90.90;;;14.55;55.55;98978.91;4912962;28;114681;-82
2023/04/30 03:03:39;;;;;;;;;;;14.30;91.40;;;14.53;55.81;98985.97;4904256;28;113747;-81
2023/04/30 03:06:05;;;;;;;;;;;14.30;91.40;;;14.52;55.86;98979.59;4911357;28;124232;-79
2023/04/30 03:08:41;;;;;;;;;;;14.30;91.50;;;14.49;55.71;98973.88;4910454;28;124146;-78
2023/04/30 03:11:11;;;;;;;;;;;14.30;91.50;;;14.45;55.83;98979.25;4900343;28;114182;-80
2023/04/30 03:13:37;;;;;;;;;;;14.20;91.50;;;14.45;55.96;98978.44;4910826;28;114077;-81
2023/04/30 03:16:04;;;;;;;;;;;14.20;91.50;;;14.45;56.02;98984.81;4912100;28;124412;-79
2023/04/30 03:18:31;;;;;;;;;;;14.20;91.60;;;14.46;56.22;98972.56;4907851;28;123941;-79
2023/04/30 03:21:00;;;;;;;;;;;14.20;91.60;;;14.50;55.62;98983.81;4911843;28;114309;-79
2023/04/30 03:23:27;;;;;;;;;;;14.20;91.60;;;14.49;55.95;98973.88;4897590;28;113771;-79
2023/04/30 03:25:55;;;;;;;;;;;14.30;91.70;;;14.50;56.00;98969.91;4906726;28;123239;-83
2023/04/30 03:28:23;;;;;;;;;;;14.20;91.60;;;14.48;55.84;98972.22;4913825;28;124108;-81
2023/04/30 03:30:49;;;;;;;;;;;14.30;91.70;;;14.48;55.91;98970.28;4909896;28;115538;-80
2023/04/30 03:33:15;;;;;;;;;;;14.20;91.60;;;14.53;55.83;98974.84;4908173;28;115358;-78
2023/04/30 03:35:42;;;;;;;;;;;14.20;91.60;;;14.52;55.72;98974.03;4911476;28;124239;-79
2023/04/30 03:38:11;;;;;;;;;;;14.30;91.70;;;14.53;56.03;98978.47;4909315;28;124313;-79
2023/04/30 03:40:39;;;;;;;;;;;14.30;91.70;;;14.55;55.83;98976.13;4909241;28;113952;-77
2023/04/30 03:43:06;;;;;;;;;;;14.20;91.70;;;14.55;55.85;98978.91;4908684;28;113819;-81
2023/04/30 03:45:35;;;;;;;;;;;14.30;91.70;;;14.57;56.05;98976.63;4898920;28;124285;-81
2023/04/30 03:48:01;;;;;;;;;;;14.30;91.80;;;14.60;55.98;98974.34;4913608;28;123057;-81
2023/04/30 03:50:27;;;;;;;;;;;14.30;91.80;;;14.61;56.22;98982.31;4904893;28;114542;-79
2023/04/30 03:52:54;;;;;;;;;;;14.30;91.80;;;14.62;56.11;98970.06;4892505;28;113984;-80
2023/04/30 03:55:26;;;;;;;;;;;14.40;91.80;;;14.64;56.03;98973.34;4905443;28;124119;-82
2023/04/30 03:57:55;;;;;;;;;;;14.30;91.80;;;14.63;55.86;98974.47;4911548;28;124002;-79
2023/04/30 04:00:24;;;;;;;;;;;14.30;91.80;;;14.63;56.00;98973.66;4913014;28;114104;-79
2023/04/30 04:02:51;;;;;;;;;;;14.30;91.80;;;14.65;55.82;98974.97;4897510;28;112985;-80
2023/04/30 04:05:17;;;;;;;;;;;14.30;91.80;;;14.63;56.07;98977.25;4908418;28;124148;-79
2023/04/30 04:07:47;;;;;;;;;;;14.30;91.80;;;14.60;56.14;98966.00;4910665;28;124155;-80
2023/04/30 04:10:13;;;;;;;;;;;14.30;91.80;;;14.57;56.06;98971.06;4906955;28;114042;-82
2023/04/30 04:12:39;;;;;;;;;;;14.30;91.80;;;14.52;56.03;98971.25;4911611;28;113579;-80
2023/04/30 04:15:15;;;;;;;;;;;14.30;91.80;;;14.52;56.23;98981.53;4912988;28;123781;-80
2023/04/30 04:17:41;;;;;;;;;;;13.30;91.40;;;14.50;56.12;98987.41;4910970;28;124661;-81
2023/04/30 04:20:13;;;;;;;;;;;14.30;91.80;;;14.49;56.31;98994.13;4911079;28;115318;-81
2023/04/30 04:22:39;;;;;;;;;;;14.30;91.90;;;14.51;56.34;98997.41;4911242;28;114671;-80
2023/04/30 04:25:06;;;;;;;;;;;14.20;91.90;;;14.52;56.19;98987.94;4911814;28;124731;-79
2023/04/30 04:27:38;;;;;;;;;;;14.20;91.90;;;14.52;56.12;98993.50;4914284;28;124750;-81
2023/04/30 04:30:05;;;;;;;;;;;14.20;91.90;;;14.51;56.04;98993.81;4914168;28;114511;-79
2023/04/30 04:32:45;;;;;;;;;;;14.20;92.00;;;14.50;56.41;98987.41;4905087;28;111894;-82
2023/04/30 04:35:15;;;;;;;;;;;14.20;92.00;;;14.48;56.35;98991.69;4914345;28;123869;-78
2023/04/30 04:37:41;;;;;;;;;;;14.20;92.00;;;14.46;56.37;98992.03;4909671;28;123801;-79
2023/04/30 04:40:11;;;;;;;;;;;14.20;92.00;;;14.45;56.42;99003.47;4901692;28;113635;-81
2023/04/30 04:42:38;;;;;;;;;;;14.20;92.10;;;14.46;56.60;98994.81;4911254;28;113890;-78
2023/04/30 04:45:06;;;;;;;;;;;14.20;92.10;;;14.44;56.56;98994.31;4910012;28;124162;-79
2023/04/30 04:47:35;;;;;;;;;;;14.10;92.00;;;14.42;56.26;98998.56;4902025;28;123986;-78
2023/04/30 04:50:01;;;;;;;;;;;14.10;92.10;;;14.37;56.61;99002.34;4926973;28;113911;-79
2023/04/30 04:52:28;;;;;;;;;;;14.20;92.10;;;14.35;56.60;99001.88;4911414;28;113487;-79
2023/04/30 04:54:54;;;;;;;;;;;14.10;92.30;;;14.39;56.65;98996.47;4912052;28;123713;-79
2023/04/30 04:57:24;;;;;;;;;;;14.10;92.10;;;14.42;56.71;99001.34;4916336;28;123007;-80
2023/04/30 04:59:53;;;;;;;;;;;14.10;92.10;;;14.43;56.63;98991.88;4911925;28;114101;-79
2023/04/30 05:02:20;;;;;;;;;;;14.10;92.10;;;14.45;56.68;98995.94;4915413;28;113356;-77
2023/04/30 05:04:50;;;;;;;;;;;14.20;92.20;;;14.48;56.51;98998.06;4902410;28;123070;-82
2023/04/30 05:07:16;;;;;;;;;;;14.20;92.20;;;14.49;56.43;98996.09;4895837;28;122990;-78
2023/04/30 05:09:46;;;;;;;;;;;14.20;92.20;;;14.50;56.49;98998.53;4909021;28;115519;-79
2023/04/30 05:12:15;;;;;;;;;;;14.20;92.20;;;14.49;56.51;99002.47;4913327;28;115053;-81
2023/04/30 05:14:42;;;;;;;;;;;14.20;92.10;;;14.51;56.49;99002.16;4910163;28;123784;-80
2023/04/30 05:17:09;;;;;;;;;;;14.20;92.10;;;14.53;56.50;99002.66;4897075;28;124059;-78
2023/04/30 05:19:38;;;;;;;;;;;14.20;92.10;;;14.55;56.37;99005.91;4910530;28;114491;-77
2023/04/30 05:22:04;;;;;;;;;;;14.20;92.10;;;14.56;56.15;99002.81;4908699;28;118497;-78
2023/04/30 05:24:31;;;;;;;;;;;14.30;92.10;;;14.60;56.50;98997.38;4911378;28;124665;-79
2023/04/30 05:26:57;;;;;;;;;;;14.30;92.00;;;14.61;56.27;98998.19;4908897;28;124092;-77
2023/04/30 05:29:25;;;;;;;;;;;14.30;92.00;;;14.62;55.92;98999.84;4911255;28;114480;-78
2023/04/30 05:31:52;;;;;;;;;;;14.30;92.00;;;14.62;56.13;99008.19;4908078;28;114069;-79
2023/04/30 05:34:18;;;;;;;;;;;14.30;92.00;;;14.61;55.97;99009.31;4909130;28;124769;-78
2023/04/30 05:36:44;;;;;;;;;;;14.30;92.00;;;14.64;56.02;99015.06;4908565;28;124762;-82
2023/04/30 05:39:14;;;;;;;;;;;14.30;91.90;;;14.58;55.73;99006.06;4910067;28;114621;-77
2023/04/30 05:41:40;;;;;;;;;;;14.30;91.90;;;14.56;56.03;99011.16;4909596;28;115120;-78
2023/04/30 05:44:06;;;;;;;;;;;14.20;91.80;;;14.54;55.97;99010.66;4909417;28;124589;-79
2023/04/30 05:46:34;;;;;;;;;;;14.20;91.80;;;14.54;56.10;99013.44;4909058;28;123902;-77
2023/04/30 05:49:03;;;;;;;;;;;14.20;91.80;;;14.58;56.00;99008.84;4908023;28;113926;-77
2023/04/30 05:51:30;;;;;;;;;;;14.30;91.90;;;14.62;56.01;98999.84;4905858;28;114006;-78
2023/04/30 05:53:56;;;;;;;;;;;14.30;91.90;;;14.66;56.00;99011.91;4910619;28;123338;-80
2023/04/30 05:59:45;;;;;;;;;;;14.30;91.90;;;14.70;55.65;99012.91;4905132;28;115936;-80
2023/04/30 06:02:11;;;;;;;;;;;14.30;91.90;;;14.76;55.93;99000.41;4901861;28;114074;-78
2023/04/30 06:04:41;;;;;;;;;;;14.40;91.90;;;14.81;55.54;99008.56;4904229;28;124602;-80
2023/04/30 06:07:07;;;;;;;;;;;14.40;91.90;;;14.83;55.29;99005.44;4911306;28;123473;-78
2023/04/30 06:09:34;;;;;;;;;;;14.50;91.80;;;14.88;55.36;99006.06;4909034;28;114017;-85
2023/04/30 06:12:01;;;;;;;;;;;14.50;91.70;;;14.88;55.04;99014.41;4910047;28;114157;-77
2023/04/30 06:14:31;;;;;;;;;;;14.50;91.60;;;14.88;54.88;99008.84;4910929;28;123714;-79
2023/04/30 06:16:57;;;;;;;;;;;14.50;91.50;;;14.84;54.74;99007.91;4907497;28;123980;-78
2023/04/30 06:19:23;;;;;;;;;;;14.40;91.30;;;14.82;54.84;99015.75;4905521;28;114228;-79
2023/04/30 06:21:53;;;;;;;;;;;14.40;91.40;;;14.82;54.71;99012.97;4893797;28;113333;-82
2023/04/30 06:24:19;;;;;;;;;;;14.50;91.50;;;14.83;54.93;99011.84;4896685;28;124157;-79
2023/04/30 06:26:53;;;;;;;;;;;14.40;91.40;;;14.88;54.71;99017.19;4898001;28;124357;-80
2023/04/30 06:29:19;;;;;;;;;;;14.50;91.40;;;14.92;54.70;99020.94;4914287;28;115015;-77
2023/04/30 06:31:46;;;;;;;;;;;14.50;91.40;;;14.97;54.52;99012.41;4900679;28;113858;-78
2023/04/30 06:34:19;;;;;;;;;;;14.50;91.30;;;15.00;54.22;99016.50;4907204;28;123823;-79
2023/04/30 06:36:46;;;;;;;;;;;14.60;91.30;;;14.99;54.13;99015.69;4905843;28;123184;-78
2023/04/30 06:39:20;;;;;;;;;;;13.00;90.40;;;15.00;54.29;99013.69;4904558;28;114386;-79
2023/04/30 06:41:47;;;;;;;;;;;14.60;91.10;;;15.00;54.09;99017.28;4917538;28;113612;-85
2023/04/30 06:44:18;;;;;;;;;;;14.60;91.10;;;15.06;54.19;99019.88;4910210;28;124835;-79
2023/04/30 06:46:46;;;;;;;;;;;14.60;91.10;;;15.09;54.09;99020.03;4912231;28;124320;-80
2023/04/30 06:49:12;;;;;;;;;;;14.60;91.10;;;15.12;54.16;99018.53;4908642;28;114408;-79
2023/04/30 06:51:43;;;;;;;;;;;14.60;91.10;;;15.14;53.88;99021.81;4911455;28;114630;-76
2023/04/30 06:54:13;;;;;;;;;;;14.60;91.00;;;15.12;53.49;99026.88;4913734;28;124379;-80
2023/04/30 06:56:43;;;;;;;;;;;14.60;90.90;;;15.09;53.81;99019.22;4913372;28;123505;-80
2023/04/30 06:59:32;;;;;;;;;;;14.60;91.00;;;15.11;53.92;99020.50;4910807;28;113925;-77
2023/04/30 07:01:58;;;;;;;;;;;14.70;91.10;;;15.22;53.87;99026.50;4912318;28;114348;-77
2023/04/30 07:04:25;;;;;;;;;;;14.70;91.10;;;15.29;53.63;99028.75;4901945;28;124565;-76
2023/04/30 07:06:53;;;;;;;;;;;14.80;91.00;;;15.36;53.15;99023.44;4907697;28;123472;-81
2023/04/30 07:09:22;;;;;;;;;;;14.80;90.90;;;15.41;52.74;99012.09;4895182;28;114623;-81
2023/04/30 07:12:05;;;;;;;;;;;14.90;90.70;;;15.40;52.73;99008.50;4901518;28;113742;-80
2023/04/30 07:14:34;;;;;;;;;;;14.80;90.50;;;15.41;52.46;99007.34;4915011;28;123834;-81
2023/04/30 07:17:10;;;;;;;;;;;14.80;90.50;;;15.43;52.64;99007.03;4911680;28;123876;-79
2023/04/30 07:19:42;;;;;;;;;;;14.80;90.50;;;15.46;52.60;99012.72;4914919;28;114155;-80
2023/04/30 07:22:09;;;;;;;;;;;14.90;90.50;;;15.49;52.33;99000.09;4912687;28;114144;-78
2023/04/30 07:24:35;;;;;;;;;;;14.90;90.40;;;15.53;52.15;99006.63;4909793;28;124464;-78
2023/04/30 07:27:07;;;;;;;;;;;15.00;90.40;;;15.54;52.45;99013.00;4912694;28;124554;-80
2023/04/30 07:29:34;;;;;;;;;;;15.00;90.30;;;15.59;52.05;99004.44;4914573;28;114755;-81
2023/04/30 07:32:06;;;;;;;;;;;15.40;90.30;;;15.61;51.33;98999.34;4918822;28;114012;-77
2023/04/30 07:34:32;;;;;;;;;;;15.10;89.90;;;15.60;51.56;99004.06;4912891;28;123927;-77
2023/04/30 07:37:03;;;;;;;;;;;15.00;89.80;;;15.60;51.50;99000.47;4914143;28;125089;-79
2023/04/30 07:39:39;;;;;;;;;;;15.10;89.70;;;15.57;51.18;98999.19;4919951;28;115152;-80
2023/04/30 07:42:08;;;;;;;;;;;15.10;89.50;;;15.60;51.10;99000.47;4923352;28;117284;-80
2023/04/30 07:44:35;;;;;;;;;;;15.10;89.10;;;15.56;51.09;98993.97;4920763;28;124153;-83
2023/04/30 07:47:05;;;;;;;;;;;15.10;89.20;;;15.61;51.22;98985.41;4918420;28;123798;-81
2023/04/30 07:49:31;;;;;;;;;;;15.10;89.20;;;15.67;51.08;98984.03;4932609;28;112627;-83
2023/04/30 07:51:59;;;;;;;;;;;15.20;89.20;;;15.81;50.55;98984.59;4920926;28;114379;-79
2023/04/30 07:54:35;;;;;;;;;;;15.30;88.90;;;15.90;50.25;98981.72;4911157;28;123257;-80
2023/04/30 07:57:04;;;;;;;;;;;15.30;88.40;;;15.98;49.80;98977.22;4898459;28;123735;-77
2023/04/30 07:59:31;;;;;;;;;;;15.30;87.90;;;16.01;49.57;98979.31;4909522;28;114540;-77
2023/04/30 08:01:57;;;;;;;;;;;15.40;87.50;;;16.05;49.12;98983.03;4896585;28;113297;-79
2023/04/30 08:04:24;;;;;;;;;;;15.40;87.00;;;16.11;48.55;98990.81;4902273;28;124840;-79
2023/04/30 08:06:52;;;;;;;;;;;15.40;86.40;;;16.11;48.61;98987.22;4905655;28;123544;-77
2023/04/30 08:09:18;;;;;;;;;;;15.50;86.50;;;16.12;48.96;98972.16;4901599;28;113963;-77
2023/04/30 08:11:47;;;;;;;;;;;15.40;86.70;;;16.17;49.07;98980.25;4910251;28;114387;-83
2023/04/30 08:14:16;;;;;;;;;;;15.50;87.10;;;16.24;49.16;98980.53;4930673;28;123336;-80
2023/04/30 08:16:43;;;;;;;;;;;15.60;87.10;;;16.34;49.04;98982.88;4912409;28;124197;-81
2023/04/30 08:19:09;;;;;;;;;;;15.70;86.90;;;16.45;48.82;98985.22;4894667;28;114441;-80
2023/04/30 08:21:45;;;;;;;;;;;15.80;87.10;;;16.53;48.42;98981.50;4904480;28;113117;-79
2023/04/30 08:24:18;;;;;;;;;;;15.90;86.50;;;16.63;48.47;98971.84;4891301;28;123342;-79
2023/04/30 08:26:45;;;;;;;;;;;16.00;86.40;;;16.76;47.62;98979.88;4905782;28;124787;-78
2023/04/30 08:29:14;;;;;;;;;;;16.10;85.70;;;16.84;47.40;98982.91;4890013;28;115869;-76
2023/04/30 08:31:41;;;;;;;;;;;16.20;85.30;;;16.89;46.70;98986.28;4905813;28;114110;-78
2023/04/30 08:34:07;;;;;;;;;;;16.30;84.20;;;16.92;46.59;98985.56;4907717;28;124612;-77
2023/04/30 08:36:33;;;;;;;;;;;16.30;84.00;;;16.97;46.81;98981.75;4910894;28;123769;-85
2023/04/30 08:39:03;;;;;;;;;;;16.40;84.30;;;17.08;46.91;98980.09;4903799;28;113967;-78
2023/04/30 08:41:34;;;;;;;;;;;16.50;85.10;;;17.19;46.73;98969.25;4909919;28;113727;-82
2023/04/30 08:44:03;;;;;;;;;;;16.60;84.20;;;17.28;44.06;98971.94;4897351;28;124200;-79
2023/04/30 08:46:32;;;;;;;;;;;16.70;80.70;;;17.26;43.46;98985.41;4912349;28;123040;-78
2023/04/30 08:49:01;;;;;;;;;;;16.60;79.40;;;17.30;43.66;98976.00;4907845;28;116252;-87
2023/04/30 08:51:30;;;;;;;;;;;16.70;79.70;;;17.41;42.92;98974.34;4908894;28;113174;-86
2023/04/30 08:53:57;;;;;;;;;;;16.80;78.70;;;17.44;42.15;98976.41;4895821;28;122771;-88
2023/04/30 08:56:28;;;;;;;;;;;16.80;77.00;;;17.50;41.80;98974.19;4899631;28;123057;-86
2023/04/30 08:58:54;;;;;;;;;;;16.80;76.70;;;17.52;40.81;98971.84;4900818;28;114523;-87
2023/04/30 09:01:21;;;;;;;;;;;16.90;75.00;;;17.54;40.95;98975.06;4907705;28;113852;-85
2023/04/30 09:03:52;;;;;;;;;;;16.90;75.30;;;17.60;40.64;98976.47;4909903;28;124309;-86
2023/04/30 09:06:18;;;;;;;;;;;17.00;74.50;;;17.61;40.25;98969.72;4908405;28;125151;-86
2023/04/30 09:08:53;;;;;;;;;;;17.00;73.90;;;17.61;39.78;98972.50;4911482;28;113976;-86
2023/04/30 09:11:27;;;;;;;;;;;17.00;72.80;;;17.57;38.46;98974.41;4911141;28;113078;-87
2023/04/30 09:13:56;;;;;;;;;;;17.10;70.30;;;17.56;39.30;98972.75;4908620;28;124794;-87
2023/04/30 09:16:35;;;;;;;;;;;17.10;71.10;;;17.60;39.39;98959.72;4907926;28;124617;-86
2023/04/30 09:19:02;;;;;;;;;;;17.10;71.70;;;17.71;39.76;98973.19;4908708;28;115859;-88
2023/04/30 09:21:37;;;;;;;;;;;17.20;72.10;;;17.73;39.29;98963.28;4909436;28;114337;-87
2023/04/30 09:24:04;;;;;;;;;;;18.20;72.70;;;17.71;39.13;98973.19;4900288;28;123331;-86
2023/04/30 09:26:37;;;;;;;;;;;17.20;71.20;;;17.73;39.53;98959.63;4896129;28;123351;-87
2023/04/30 09:29:07;;;;;;;;;;;17.20;71.60;;;17.78;39.62;98963.00;4904755;28;114330;-88
2023/04/30 09:31:37;;;;;;;;;;;17.30;71.80;;;17.87;39.71;98969.28;4908433;28;114051;-89
2023/04/30 09:34:04;;;;;;;;;;;16.70;71.50;;;17.94;38.43;98965.06;4908782;28;124144;-86
2023/04/30 09:36:31;;;;;;;;;;;17.40;69.60;;;17.95;38.24;98966.69;4910007;28;124082;-87
2023/04/30 09:39:10;;;;;;;;;;;17.40;69.50;;;17.98;37.92;98963.97;4909283;28;115466;-87
2023/04/30 09:41:36;;;;;;;;;;;17.40;68.70;;;17.97;37.99;98955.94;4921444;28;112185;-87
2023/04/30 09:44:03;;;;;;;;;;;17.30;68.80;;;18.00;38.57;98967.25;4900096;28;125128;-86
2023/04/30 09:46:37;;;;;;;;;;;17.40;69.70;;;18.06;38.33;98963.00;4902206;28;123600;-87
2023/04/30 09:49:06;;;;;;;;;;;18.40;70.30;;;18.09;38.05;98956.69;4910085;28;114496;-87
2023/04/30 09:51:52;;;;;;;;;;;17.60;68.60;;;18.10;37.44;98952.72;4911428;28;113337;-87
2023/04/30 09:54:29;;;;;;;;;;;17.60;67.50;;;18.12;37.59;98965.53;4908577;28;124979;-87
2023/04/30 09:57:01;;;;;;;;;;;17.60;67.90;;;18.15;38.04;98960.03;4901957;28;123941;-86
2023/04/30 09:59:36;;;;;;;;;;;17.60;68.60;;;18.23;37.74;98963.84;4900463;28;114533;-87
2023/04/30 10:02:07;;;;;;;;;;;17.80;68.20;;;18.28;36.82;98957.97;4927195;28;112301;-87
2023/04/30 10:04:38;;;;;;;;;;;17.80;66.80;;;18.30;36.67;98958.44;4908385;28;124566;-87
2023/04/30 10:07:23;;;;;;;;;;;17.80;65.90;;;18.24;36.29;98952.31;4902751;28;124265;-86
2023/04/30 10:10:10;;;;;;;;;;;17.70;65.10;;;18.24;36.77;98951.47;4908842;28;114922;-86
2023/04/30 10:12:49;;;;;;;;;;;17.70;65.90;;;18.28;36.74;98955.19;4907368;28;115187;-88
2023/04/30 10:15:38;;;;;;;;;;;17.80;65.90;;;18.28;35.77;98944.00;4916338;28;124084;-88
2023/04/30 10:18:17;;;;;;;;;;;17.70;64.00;;;18.28;36.05;98941.19;4905797;28;124066;-87
2023/04/30 10:20:47;;;;;;;;;;;17.80;64.30;;;18.29;36.51;98940.81;4871989;28;113616;-86
2023/04/30 10:23:14;;;;;;;;;;;17.80;65.30;;;18.33;35.58;98940.94;4903736;28;114325;-88
2023/04/30 10:25:40;;;;;;;;;;;17.80;63.60;;;18.33;35.42;98952.13;4892408;28;124730;-87
2023/04/30 10:28:13;;;;;;;;;;;17.80;63.30;;;18.29;35.94;98943.59;4909271;28;123966;-89
2023/04/30 10:30:49;;;;;;;;;;;17.80;64.10;;;18.29;35.59;98951.19;4908446;28;113652;-86
2023/04/30 10:33:22;;;;;;;;;;;17.80;63.60;;;18.29;35.58;98943.59;4911893;28;112866;-86
2023/04/30 10:36:01;;;;;;;;;;;17.80;63.20;;;18.31;36.11;98943.25;4894800;28;118485;-88
2023/04/30 10:38:29;;;;;;;;;;;17.80;63.90;;;18.38;36.28;98943.47;4894683;28;124584;-86
2023/04/30 10:41:00;;;;;;;;;;;17.90;64.50;;;18.43;35.85;98940.38;4910480;28;115117;-87
2023/04/30 10:43:29;;;;;;;;;;;18.00;63.70;;;18.47;35.64;98944.06;4910260;28;113747;-86
2023/04/30 10:46:01;;;;;;;;;;;18.00;63.40;;;18.52;35.61;98937.41;4909338;28;124357;-85
2023/04/30 10:48:30;;;;;;;;;;;17.80;62.60;;;18.53;36.12;98941.81;4891348;28;124032;-87
2023/04/30 10:51:00;;;;;;;;;;;18.00;64.00;;;18.61;36.06;98951.19;4898942;28;113641;-86
2023/04/30 10:53:30;;;;;;;;;;;18.10;63.90;;;18.63;36.18;98940.47;4899362;28;113627;-88
2023/04/30 10:56:06;;;;;;;;;;;18.20;64.00;;;18.67;36.09;98939.38;4897688;28;124233;-87
2023/04/30 10:58:38;;;;;;;;;;;18.30;64.30;;;18.73;36.31;98923.91;4911974;28;123556;-88
2023/04/30 11:01:16;;;;;;;;;;;18.30;64.30;;;18.79;36.24;98932.06;4904384;28;115615;-89
2023/04/30 11:04:05;;;;;;;;;;;18.30;64.40;;;18.81;35.64;98924.94;4905568;28;114896;-88
2023/04/30 11:07:01;;;;;;;;;;;18.30;62.70;;;18.81;35.82;98921.31;4903570;28;124246;-85
2023/04/30 11:09:41;;;;;;;;;;;18.30;63.20;;;18.81;35.69;98919.34;4913155;28;124573;-85
2023/04/30 11:12:28;;;;;;;;;;;18.30;63.20;;;18.81;35.74;98924.13;4905035;28;114477;-87
2023/04/30 11:15:06;;;;;;;;;;;18.30;63.10;;;18.81;36.07;98919.34;4912301;28;113953;-86
2023/04/30 11:17:36;;;;;;;;;;;18.30;63.60;;;18.83;36.03;98919.75;4906096;28;124160;-89
2023/04/30 11:20:13;;;;;;;;;;;18.30;63.20;;;18.85;35.66;98909.00;4910459;28;124418;-86
2023/04/30 11:22:40;;;;;;;;;;;18.30;62.90;;;18.80;35.39;98905.69;4911098;28;113643;-88
2023/04/30 11:25:17;;;;;;;;;;;18.30;62.20;;;18.74;35.60;98911.56;4927576;28;112563;-88
2023/04/30 11:27:47;;;;;;;;;;;18.20;63.20;;;18.69;35.07;98922.19;4924944;28;124466;-87